createdAt,value
2024-01-24T00:01:37.884Z,19.69
2024-01-24T00:04:05.397Z,19.68
2024-01-24T00:06:32.837Z,19.67
2024-01-24T00:09:00.279Z,19.66
2024-01-24T00:11:27.621Z,19.67
2024-01-24T00:13:54.892Z,19.66
2024-01-24T00:16:22.164Z,19.65
2024-01-24T00:18:49.582Z,19.64
2024-01-24T00:21:17.062Z,19.63
2024-01-24T00:23:44.413Z,19.62
2024-01-24T00:26:11.744Z,19.61
2024-01-24T00:28:39.037Z,19.61
2024-01-24T00:31:06.393Z,19.60
2024-01-24T00:33:34.462Z,19.59
2024-01-24T00:36:01.993Z,19.59
2024-01-24T00:38:29.595Z,19.59
2024-01-24T00:40:56.961Z,19.58
2024-01-24T00:43:24.453Z,19.57
2024-01-24T00:45:51.983Z,19.56
2024-01-24T00:48:19.432Z,19.56
2024-01-24T00:50:46.697Z,19.56
2024-01-24T00:53:17.110Z,19.55
2024-01-24T00:55:46.170Z,19.53
2024-01-24T00:58:14.688Z,19.52
2024-01-24T01:00:42.086Z,19.54
2024-01-24T01:03:09.992Z,19.52
2024-01-24T01:05:39.150Z,19.52
2024-01-24T01:08:07.268Z,19.52
2024-01-24T01:10:34.971Z,19.51
2024-01-24T01:13:02.447Z,19.50
2024-01-24T01:15:29.814Z,19.49
2024-01-24T01:17:57.138Z,19.49
2024-01-24T01:20:24.510Z,19.47
2024-01-24T01:22:51.890Z,19.47
2024-01-24T01:25:19.258Z,19.47
2024-01-24T01:27:46.609Z,19.47
2024-01-24T01:30:14.163Z,19.46
2024-01-24T01:32:41.620Z,19.44
2024-01-24T01:35:09.486Z,19.46
2024-01-24T01:37:39.263Z,19.45
2024-01-24T01:40:07.932Z,19.44
2024-01-24T01:42:35.216Z,19.44
2024-01-24T01:45:07.547Z,19.44
2024-01-24T01:47:35.000Z,19.43
2024-01-24T01:50:02.863Z,19.43
2024-01-24T01:52:31.480Z,19.42
2024-01-24T01:54:58.871Z,19.42
2024-01-24T01:57:26.801Z,19.41
2024-01-24T01:59:54.419Z,19.41
2024-01-24T02:02:21.810Z,19.39
2024-01-24T02:04:49.323Z,19.40
2024-01-24T02:07:16.826Z,19.40
2024-01-24T02:09:45.537Z,19.39
2024-01-24T02:12:13.025Z,19.38
2024-01-24T02:14:40.352Z,19.40
2024-01-24T02:17:07.746Z,19.40
2024-01-24T02:19:35.086Z,19.39
2024-01-24T02:22:02.431Z,19.39
2024-01-24T02:24:30.342Z,19.39
2024-01-24T02:26:57.698Z,19.39
2024-01-24T02:29:25.432Z,19.39
2024-01-24T02:31:52.710Z,19.39
2024-01-24T02:34:20.220Z,19.39
2024-01-24T02:36:47.568Z,19.37
2024-01-24T02:39:14.928Z,19.37
2024-01-24T02:41:42.343Z,19.37
2024-01-24T02:44:09.617Z,19.37
2024-01-24T02:46:37.082Z,19.37
2024-01-24T02:49:04.566Z,19.35
2024-01-24T02:51:32.207Z,19.36
2024-01-24T02:53:59.654Z,19.36
2024-01-24T02:56:27.373Z,19.35
2024-01-24T02:58:54.896Z,19.35
2024-01-24T03:01:22.457Z,19.34
2024-01-24T03:03:49.888Z,19.33
2024-01-24T03:06:17.356Z,19.33
2024-01-24T03:08:58.450Z,19.32
2024-01-24T03:11:26.108Z,19.32
2024-01-24T03:13:53.497Z,19.32
2024-01-24T03:16:20.851Z,19.31
2024-01-24T03:18:49.431Z,19.30
2024-01-24T03:21:18.841Z,19.30
2024-01-24T03:23:46.463Z,19.30
2024-01-24T03:26:17.631Z,19.30
2024-01-24T03:28:45.102Z,19.30
2024-01-24T03:31:12.531Z,19.28
2024-01-24T03:33:39.953Z,19.29
2024-01-24T03:36:08.003Z,19.29
2024-01-24T03:38:35.836Z,19.28
2024-01-24T03:41:03.198Z,19.27
2024-01-24T03:43:30.533Z,19.26
2024-01-24T03:45:57.871Z,19.26
2024-01-24T03:48:25.275Z,19.25
2024-01-24T03:50:52.619Z,19.25
2024-01-24T03:53:19.995Z,19.25
2024-01-24T03:55:47.353Z,19.26
2024-01-24T03:58:15.221Z,19.26
2024-01-24T04:00:43.465Z,19.25
2024-01-24T04:03:11.550Z,19.26
2024-01-24T04:05:38.935Z,19.26
2024-01-24T04:08:06.406Z,19.25
2024-01-24T04:10:33.706Z,19.26
2024-01-24T04:13:01.016Z,19.25
2024-01-24T04:15:28.727Z,19.25
2024-01-24T04:17:56.431Z,19.25
2024-01-24T04:20:23.701Z,19.25
2024-01-24T04:22:50.984Z,19.24
2024-01-24T04:25:18.355Z,19.23
2024-01-24T04:27:45.664Z,19.22
2024-01-24T04:30:13.634Z,19.23
2024-01-24T04:32:42.298Z,19.22
2024-01-24T04:35:09.731Z,19.22
2024-01-24T04:37:37.168Z,19.22
2024-01-24T04:40:05.113Z,19.22
2024-01-24T04:42:32.475Z,19.22
2024-01-24T04:44:59.835Z,19.21
2024-01-24T04:47:27.367Z,19.21
2024-01-24T04:49:54.918Z,19.21
2024-01-24T04:52:22.267Z,19.20
2024-01-24T04:54:49.700Z,19.20
2024-01-24T04:57:17.080Z,19.20
2024-01-24T04:59:50.259Z,19.19
2024-01-24T05:02:23.938Z,19.18
2024-01-24T05:04:51.548Z,19.17
2024-01-24T05:07:19.037Z,19.17
2024-01-24T05:09:46.476Z,19.16
2024-01-24T05:12:13.926Z,19.16
2024-01-24T05:14:41.457Z,19.16
2024-01-24T05:17:08.744Z,19.14
2024-01-24T05:19:36.661Z,19.14
2024-01-24T05:22:04.345Z,19.13
2024-01-24T05:24:31.745Z,19.12
2024-01-24T05:26:59.120Z,19.12
2024-01-24T05:29:26.816Z,19.13
2024-01-24T05:31:54.286Z,19.13
2024-01-24T05:34:21.995Z,19.12
2024-01-24T05:36:49.330Z,19.12
2024-01-24T05:39:17.036Z,19.12
2024-01-24T05:41:44.969Z,19.12
2024-01-24T05:44:12.379Z,19.14
2024-01-24T05:46:39.716Z,19.15
2024-01-24T05:49:07.458Z,19.15
2024-01-24T05:51:35.047Z,19.14
2024-01-24T05:54:02.500Z,19.13
2024-01-24T05:56:29.843Z,19.13
2024-01-24T05:58:57.235Z,19.12
2024-01-24T06:01:24.725Z,19.12
2024-01-24T06:03:52.133Z,19.11
2024-01-24T06:06:20.087Z,19.10
2024-01-24T06:08:47.690Z,19.10
2024-01-24T06:11:15.911Z,19.10
2024-01-24T06:13:43.303Z,19.09
2024-01-24T06:16:10.916Z,19.10
2024-01-24T06:18:38.339Z,19.10
2024-01-24T06:21:05.726Z,19.09
2024-01-24T06:23:33.044Z,19.09
2024-01-24T06:26:00.372Z,19.08
2024-01-24T06:28:27.636Z,19.09
2024-01-24T06:30:54.971Z,19.08
2024-01-24T06:33:22.844Z,19.09
2024-01-24T06:35:50.293Z,19.08
2024-01-24T06:38:17.540Z,19.07
2024-01-24T06:40:44.841Z,19.07
2024-01-24T06:43:13.682Z,19.08
2024-01-24T06:45:40.982Z,19.07
2024-01-24T06:48:08.976Z,19.07
2024-01-24T06:50:36.890Z,19.06
2024-01-24T06:53:05.044Z,19.03
2024-01-24T06:55:32.820Z,19.03
2024-01-24T06:58:00.292Z,19.04
2024-01-24T07:00:29.074Z,19.03
2024-01-24T07:02:57.624Z,19.03
2024-01-24T07:05:24.869Z,19.03
2024-01-24T07:07:52.223Z,19.02
2024-01-24T07:10:19.578Z,19.00
2024-01-24T07:12:47.621Z,18.99
2024-01-24T07:15:17.645Z,18.99
2024-01-24T07:17:45.820Z,19.00
2024-01-24T07:20:14.697Z,18.99
2024-01-24T07:22:42.111Z,18.98
2024-01-24T07:25:09.800Z,18.97
2024-01-24T07:27:37.235Z,18.98
2024-01-24T07:30:05.644Z,18.99
2024-01-24T07:32:33.278Z,19.00
2024-01-24T07:35:00.955Z,19.00
2024-01-24T07:37:28.653Z,19.00
2024-01-24T07:39:56.542Z,18.97
2024-01-24T07:42:24.001Z,18.96
2024-01-24T07:44:51.525Z,18.95
2024-01-24T07:47:22.664Z,18.96
2024-01-24T07:49:50.232Z,18.97
2024-01-24T07:52:28.581Z,18.97
2024-01-24T07:55:04.679Z,18.97
2024-01-24T07:57:32.466Z,18.98
2024-01-24T08:00:00.071Z,18.98
2024-01-24T08:02:27.799Z,18.98
2024-01-24T08:04:55.315Z,18.99
2024-01-24T08:07:23.045Z,19.00
2024-01-24T08:09:50.637Z,19.01
2024-01-24T08:12:17.936Z,19.02
2024-01-24T08:14:45.341Z,19.05
2024-01-24T08:17:12.732Z,19.05
2024-01-24T08:19:40.246Z,19.07
2024-01-24T08:22:07.820Z,19.09
2024-01-24T08:24:35.211Z,19.10
2024-01-24T08:27:03.955Z,19.12
2024-01-24T08:29:36.870Z,19.11
2024-01-24T08:32:06.894Z,19.12
2024-01-24T08:34:36.899Z,19.13
2024-01-24T08:37:05.165Z,19.11
2024-01-24T08:39:38.257Z,19.13
2024-01-24T08:42:05.848Z,19.14
2024-01-24T08:44:33.726Z,19.16
2024-01-24T08:47:00.990Z,19.16
2024-01-24T08:49:28.380Z,19.17
2024-01-24T08:51:57.834Z,19.19
2024-01-24T08:54:25.380Z,19.19
2024-01-24T08:56:53.218Z,19.19
2024-01-24T08:59:20.591Z,19.19
2024-01-24T09:01:48.113Z,19.17
2024-01-24T09:04:16.656Z,19.18
2024-01-24T09:06:44.411Z,19.18
2024-01-24T09:09:15.161Z,19.19
2024-01-24T09:11:50.401Z,19.21
2024-01-24T09:14:25.419Z,19.18
2024-01-24T09:16:54.642Z,19.17
2024-01-24T09:19:23.169Z,19.16
2024-01-24T09:21:51.664Z,19.14
2024-01-24T09:24:19.406Z,19.13
2024-01-24T09:26:46.737Z,19.13
2024-01-24T09:29:14.261Z,19.12
2024-01-24T09:31:44.765Z,19.13
2024-01-24T09:34:15.744Z,19.12
2024-01-24T09:36:43.351Z,19.11
2024-01-24T09:39:11.142Z,19.12
2024-01-24T09:41:43.201Z,19.11
2024-01-24T09:44:13.220Z,19.13
2024-01-24T09:46:43.382Z,19.15
2024-01-24T09:49:16.268Z,19.15
2024-01-24T09:51:45.037Z,19.15
2024-01-24T09:54:13.679Z,19.16
2024-01-24T09:56:41.837Z,19.17
2024-01-24T09:59:09.734Z,19.19
2024-01-24T10:01:40.312Z,19.20
2024-01-24T10:04:08.650Z,19.22
2024-01-24T10:06:39.744Z,19.22
2024-01-24T10:09:08.980Z,19.24
2024-01-24T10:11:36.732Z,19.23
2024-01-24T10:14:04.118Z,19.22
2024-01-24T10:16:31.500Z,19.22
2024-01-24T10:18:59.132Z,19.22
2024-01-24T10:21:27.204Z,19.20
2024-01-24T10:24:00.395Z,19.17
2024-01-24T10:26:28.264Z,19.15
2024-01-24T10:28:56.156Z,19.15
2024-01-24T10:31:25.183Z,19.16
2024-01-24T10:33:57.403Z,19.17
2024-01-24T10:36:27.810Z,19.17
2024-01-24T10:39:01.955Z,19.18
2024-01-24T10:41:32.126Z,19.17
2024-01-24T10:44:06.185Z,19.16
2024-01-24T10:46:34.664Z,19.16
2024-01-24T10:49:03.434Z,19.15
2024-01-24T10:51:31.299Z,19.16
2024-01-24T10:53:59.887Z,19.17
2024-01-24T10:56:28.587Z,19.18
2024-01-24T10:59:06.052Z,19.18
2024-01-24T11:01:33.815Z,19.18
2024-01-24T11:04:07.789Z,19.18
2024-01-24T11:06:46.283Z,19.18
2024-01-24T11:09:40.157Z,19.16
2024-01-24T11:12:08.121Z,19.15
2024-01-24T11:14:37.430Z,19.15
2024-01-24T11:17:06.537Z,19.14
2024-01-24T11:19:34.047Z,19.14
2024-01-24T11:22:16.450Z,19.14
2024-01-24T11:24:54.147Z,19.13
2024-01-24T11:27:25.134Z,19.13
2024-01-24T11:29:53.655Z,19.13
2024-01-24T11:32:45.892Z,19.13
2024-01-24T11:35:39.532Z,19.12
2024-01-24T11:38:26.885Z,19.14
2024-01-24T11:41:02.293Z,19.17
2024-01-24T11:43:37.681Z,19.17
2024-01-24T11:46:09.603Z,19.18
2024-01-24T11:48:40.569Z,19.18
2024-01-24T11:51:10.347Z,19.17
2024-01-24T11:53:37.861Z,19.18
2024-01-24T11:56:08.024Z,19.19
2024-01-24T11:58:35.470Z,19.19
2024-01-24T12:01:05.272Z,19.19
2024-01-24T12:03:33.408Z,19.19
2024-01-24T12:06:01.437Z,19.19
2024-01-24T12:08:29.662Z,19.21
2024-01-24T12:10:58.093Z,19.20
2024-01-24T12:13:28.388Z,19.21
2024-01-24T12:15:56.857Z,19.21
2024-01-24T12:18:26.148Z,19.23
2024-01-24T12:20:57.124Z,19.22
2024-01-24T12:23:27.892Z,19.24
2024-01-24T12:25:56.169Z,19.23
2024-01-24T12:28:25.704Z,19.24
2024-01-24T12:30:54.586Z,19.23
2024-01-24T12:33:23.615Z,19.23
2024-01-24T12:35:52.108Z,19.23
2024-01-24T12:38:20.037Z,19.23
2024-01-24T12:40:55.004Z,19.24
2024-01-24T12:43:24.414Z,19.21
2024-01-24T12:45:54.752Z,19.17
2024-01-24T12:48:24.733Z,19.14
2024-01-24T12:50:53.438Z,19.00
2024-01-24T12:53:23.685Z,18.92
2024-01-24T12:55:51.950Z,18.89
2024-01-24T12:58:20.622Z,18.89
2024-01-24T13:00:48.369Z,18.89
2024-01-24T13:03:18.937Z,18.88
2024-01-24T13:05:51.135Z,18.87
2024-01-24T13:08:19.643Z,18.88
2024-01-24T13:10:48.282Z,18.87
2024-01-24T13:13:16.308Z,18.86
2024-01-24T13:15:47.287Z,18.85
2024-01-24T13:18:15.108Z,18.86
2024-01-24T13:20:42.666Z,18.85
2024-01-24T13:23:09.924Z,18.85
2024-01-24T13:25:37.700Z,18.85
2024-01-24T13:28:05.677Z,18.84
2024-01-24T13:30:34.698Z,18.86
2024-01-24T13:33:02.123Z,18.84
2024-01-24T13:35:30.206Z,18.81
2024-01-24T13:37:59.137Z,18.71
2024-01-24T13:40:26.668Z,18.69
2024-01-24T13:42:54.216Z,18.68
2024-01-24T13:45:21.931Z,18.69
2024-01-24T13:47:49.617Z,18.70
2024-01-24T13:50:17.679Z,18.70
2024-01-24T13:52:45.180Z,18.72
2024-01-24T13:55:13.658Z,18.74
2024-01-24T13:57:43.884Z,18.74
2024-01-24T14:00:15.344Z,18.75
2024-01-24T14:02:43.717Z,18.75
2024-01-24T14:05:12.116Z,18.76
2024-01-24T14:07:43.735Z,18.76
2024-01-24T14:10:12.942Z,18.77
2024-01-24T14:12:40.808Z,18.77
2024-01-24T14:15:19.243Z,18.77
2024-01-24T14:17:52.164Z,18.77
2024-01-24T14:20:19.657Z,18.78
2024-01-24T14:22:47.250Z,18.77
2024-01-24T14:25:14.726Z,18.78
2024-01-24T14:27:42.500Z,18.78
2024-01-24T14:30:10.706Z,18.78
2024-01-24T14:32:41.431Z,18.78
2024-01-24T14:35:09.709Z,18.78
2024-01-24T14:37:38.256Z,18.79
2024-01-24T14:40:06.476Z,18.79
2024-01-24T14:42:33.828Z,18.77
2024-01-24T14:45:01.727Z,18.77
2024-01-24T14:47:29.177Z,18.77
2024-01-24T14:49:59.302Z,18.76
2024-01-24T14:52:26.739Z,18.76
2024-01-24T14:54:54.144Z,18.77
2024-01-24T14:57:21.506Z,18.78
2024-01-24T14:59:48.912Z,18.77
2024-01-24T15:02:16.171Z,18.77
2024-01-24T15:04:43.564Z,18.78
2024-01-24T15:07:11.212Z,18.78
2024-01-24T15:09:38.633Z,18.78
2024-01-24T15:12:06.378Z,18.80
2024-01-24T15:14:33.779Z,18.80
2024-01-24T15:17:04.857Z,18.80
2024-01-24T15:19:32.171Z,18.79
2024-01-24T15:22:00.163Z,18.80
2024-01-24T15:24:27.696Z,18.80
2024-01-24T15:26:56.986Z,18.81
2024-01-24T15:29:24.759Z,18.80
2024-01-24T15:31:52.156Z,18.82
2024-01-24T15:34:21.679Z,18.81
2024-01-24T15:36:49.839Z,18.81
2024-01-24T15:39:20.127Z,18.82
2024-01-24T15:41:49.470Z,18.82
2024-01-24T15:44:17.313Z,18.82
2024-01-24T15:46:45.041Z,18.81
2024-01-24T15:49:12.946Z,18.81
2024-01-24T15:51:40.952Z,18.82
2024-01-24T15:54:09.554Z,18.81
2024-01-24T15:56:36.892Z,18.82
2024-01-24T15:59:05.184Z,18.82
2024-01-24T16:01:32.716Z,18.83
2024-01-24T16:04:00.961Z,18.84
2024-01-24T16:06:28.727Z,18.82
2024-01-24T16:08:56.055Z,18.83
2024-01-24T16:11:24.407Z,18.85
2024-01-24T16:13:53.131Z,18.86
2024-01-24T16:16:20.659Z,18.86
2024-01-24T16:18:50.807Z,18.86
2024-01-24T16:21:22.170Z,18.86
2024-01-24T16:23:51.231Z,18.87
2024-01-24T16:26:19.570Z,18.88
2024-01-24T16:28:47.822Z,18.88
2024-01-24T16:31:15.288Z,18.88
2024-01-24T16:33:43.160Z,18.88
2024-01-24T16:36:10.943Z,18.89
2024-01-24T16:38:38.327Z,18.89
2024-01-24T16:41:07.549Z,18.89
2024-01-24T16:43:37.837Z,18.89
2024-01-24T16:46:07.346Z,18.89
2024-01-24T16:48:34.849Z,18.89
2024-01-24T16:51:03.143Z,18.91
2024-01-24T16:53:34.992Z,18.91
2024-01-24T16:56:03.287Z,18.91
2024-01-24T16:58:31.398Z,18.91
2024-01-24T17:00:59.166Z,18.92
2024-01-24T17:03:27.828Z,18.92
2024-01-24T17:05:55.176Z,18.94
2024-01-24T17:08:22.570Z,18.93
2024-01-24T17:10:49.891Z,18.94
2024-01-24T17:13:20.008Z,18.95
2024-01-24T17:15:47.570Z,18.96
2024-01-24T17:18:15.005Z,18.95
2024-01-24T17:20:45.165Z,18.95
2024-01-24T17:23:13.058Z,18.95
2024-01-24T17:25:40.892Z,18.96
2024-01-24T17:28:08.190Z,18.96
2024-01-24T17:30:36.423Z,18.97
2024-01-24T17:33:03.971Z,18.97
2024-01-24T17:35:32.800Z,19.00
2024-01-24T17:38:03.327Z,19.01
2024-01-24T17:40:31.898Z,19.02
2024-01-24T17:43:02.802Z,19.03
2024-01-24T17:45:30.653Z,19.05
2024-01-24T17:47:58.019Z,19.07
2024-01-24T17:50:27.168Z,19.08
2024-01-24T17:52:55.999Z,19.09
2024-01-24T17:55:23.514Z,19.12
2024-01-24T17:57:51.255Z,19.13
2024-01-24T18:00:18.910Z,19.16
2024-01-24T18:02:46.281Z,19.19
2024-01-24T18:05:15.495Z,19.19
2024-01-24T18:07:44.244Z,19.21
2024-01-24T18:10:11.613Z,19.22
2024-01-24T18:12:39.056Z,19.23
2024-01-24T18:15:07.205Z,19.23
2024-01-24T18:17:37.483Z,19.22
2024-01-24T18:20:06.466Z,19.21
2024-01-24T18:22:36.013Z,19.20
2024-01-24T18:25:03.633Z,19.21
2024-01-24T18:27:31.299Z,19.21
2024-01-24T18:29:59.034Z,19.20
2024-01-24T18:32:28.930Z,19.20
2024-01-24T18:34:59.036Z,19.20
2024-01-24T18:37:50.151Z,19.20
2024-01-24T18:40:23.465Z,19.22
2024-01-24T18:42:50.706Z,19.19
2024-01-24T18:45:39.921Z,19.22
2024-01-24T18:48:11.572Z,19.22
2024-01-24T18:50:56.166Z,19.22
2024-01-24T18:53:27.403Z,19.22
2024-01-24T18:55:57.511Z,19.22
2024-01-24T18:58:32.314Z,19.23
2024-01-24T19:01:00.802Z,19.24
2024-01-24T19:03:28.868Z,19.24
2024-01-24T19:05:57.787Z,19.26
2024-01-24T19:08:27.813Z,19.27
2024-01-24T19:10:55.178Z,19.26
2024-01-24T19:13:27.756Z,19.27
2024-01-24T19:15:56.228Z,19.26
2024-01-24T19:18:25.392Z,19.26
2024-01-24T19:20:54.597Z,19.26
2024-01-24T19:23:21.998Z,19.26
2024-01-24T19:25:52.447Z,19.27
2024-01-24T19:28:26.340Z,19.27
2024-01-24T19:30:56.313Z,19.27
2024-01-24T19:33:23.665Z,19.26
2024-01-24T19:35:51.005Z,19.29
2024-01-24T19:38:19.640Z,19.29
2024-01-24T19:41:00.204Z,19.30
2024-01-24T19:43:27.755Z,19.31
2024-01-24T19:45:58.107Z,19.32
2024-01-24T19:48:28.898Z,19.33
2024-01-24T19:50:58.756Z,19.34
2024-01-24T19:53:33.430Z,19.35
2024-01-24T19:56:04.574Z,19.36
2024-01-24T19:58:32.536Z,19.38
2024-01-24T20:01:07.071Z,19.38
2024-01-24T20:03:37.584Z,19.39
2024-01-24T20:06:05.286Z,19.39
2024-01-24T20:08:34.075Z,19.40
2024-01-24T20:11:04.188Z,19.41
2024-01-24T20:13:42.072Z,19.42
2024-01-24T20:16:15.487Z,19.43
2024-01-24T20:18:49.263Z,19.44
2024-01-24T20:21:21.818Z,19.44
2024-01-24T20:23:52.905Z,19.45
2024-01-24T20:26:21.642Z,19.46
2024-01-24T20:28:50.503Z,19.47
2024-01-24T20:31:19.149Z,19.48
2024-01-24T20:34:06.187Z,19.49
2024-01-24T20:36:37.828Z,19.50
2024-01-24T20:39:16.228Z,19.50
2024-01-24T20:41:49.620Z,19.51
2024-01-24T20:44:17.768Z,19.54
2024-01-24T20:46:45.074Z,19.51
2024-01-24T20:49:18.048Z,19.55
2024-01-24T20:51:48.055Z,19.53
2024-01-24T20:54:17.901Z,19.56
2024-01-24T20:56:45.332Z,19.56
2024-01-24T20:59:15.601Z,19.57
2024-01-24T21:01:47.014Z,19.58
2024-01-24T21:04:14.612Z,19.58
2024-01-24T21:06:42.204Z,19.58
2024-01-24T21:09:11.942Z,19.59
2024-01-24T21:11:41.768Z,19.59
2024-01-24T21:14:11.541Z,19.59
2024-01-24T21:16:40.795Z,19.61
2024-01-24T21:19:08.219Z,19.61
2024-01-24T21:21:44.949Z,19.62
2024-01-24T21:24:14.476Z,19.63
2024-01-24T21:26:42.026Z,19.63
2024-01-24T21:29:09.443Z,19.63
2024-01-24T21:31:37.016Z,19.64
2024-01-24T21:34:06.368Z,19.64
2024-01-24T21:36:37.287Z,19.64
2024-01-24T21:39:07.301Z,19.65
2024-01-24T21:41:48.908Z,19.67
2024-01-24T21:44:20.082Z,19.67
2024-01-24T21:46:48.180Z,19.68
2024-01-24T21:49:17.986Z,19.70
2024-01-24T21:51:47.747Z,19.69
2024-01-24T21:54:16.630Z,19.70
2024-01-24T21:56:44.538Z,19.70
2024-01-24T21:59:14.205Z,19.70
2024-01-24T22:01:44.143Z,19.72
2024-01-24T22:04:11.592Z,19.73
2024-01-24T22:06:44.335Z,19.75
2024-01-24T22:09:16.319Z,19.74
2024-01-24T22:11:45.970Z,19.76
2024-01-24T22:14:13.437Z,19.78
2024-01-24T22:16:40.784Z,19.79
2024-01-24T22:19:10.487Z,19.79
2024-01-24T22:21:44.836Z,19.81
2024-01-24T22:24:12.242Z,19.81
2024-01-24T22:26:39.623Z,19.82
2024-01-24T22:29:10.160Z,19.81
2024-01-24T22:31:39.575Z,19.81
2024-01-24T22:34:07.262Z,19.82
2024-01-24T22:36:34.819Z,19.81
2024-01-24T22:39:04.172Z,19.83
2024-01-24T22:41:31.501Z,19.83
2024-01-24T22:43:59.078Z,19.84
2024-01-24T22:46:30.397Z,19.85
2024-01-24T22:49:00.924Z,19.86
2024-01-24T22:51:30.586Z,19.85
2024-01-24T22:54:00.358Z,19.86
2024-01-24T22:56:30.131Z,19.87
2024-01-24T22:58:59.613Z,19.87
2024-01-24T23:01:29.793Z,19.88
2024-01-24T23:03:59.912Z,19.89
2024-01-24T23:06:29.517Z,19.89
2024-01-24T23:08:57.218Z,19.89
2024-01-24T23:11:26.303Z,19.90
2024-01-24T23:13:55.410Z,19.89
2024-01-24T23:16:24.703Z,19.89
2024-01-24T23:18:53.585Z,19.90
2024-01-24T23:21:21.294Z,19.90
2024-01-24T23:23:48.639Z,19.90
2024-01-24T23:26:17.187Z,19.90
2024-01-24T23:28:45.334Z,19.91
2024-01-24T23:31:13.207Z,19.89
2024-01-24T23:33:40.767Z,19.89
2024-01-24T23:36:09.118Z,19.90
2024-01-24T23:38:36.671Z,19.89
2024-01-24T23:41:04.111Z,19.89
2024-01-24T23:43:31.407Z,19.90
2024-01-24T23:45:59.266Z,19.89
2024-01-24T23:48:26.797Z,19.89
2024-01-24T23:50:54.467Z,19.89
2024-01-24T23:53:21.905Z,19.89
2024-01-24T23:55:50.526Z,19.90
2024-01-24T23:58:19.219Z,19.89
